createdAt,value
2022-11-01T00:02:00.940Z,57.67
2022-11-01T00:04:27.787Z,59.30
2022-11-01T00:06:54.778Z,64.07
2022-11-01T00:09:21.445Z,59.42
2022-11-01T00:11:48.224Z,59.22
2022-11-01T00:14:16.531Z,60.03
2022-11-01T00:16:43.646Z,57.78
2022-11-01T00:19:10.370Z,61.08
2022-11-01T00:21:37.225Z,58.58
2022-11-01T00:24:04.318Z,62.10
2022-11-01T00:26:31.100Z,59.38
2022-11-01T00:28:57.678Z,58.97
2022-11-01T00:31:24.671Z,61.53
2022-11-01T00:33:51.404Z,59.35
2022-11-01T00:36:18.048Z,59.08
2022-11-01T00:38:44.759Z,59.13
2022-11-01T00:41:11.386Z,58.63
2022-11-01T00:43:38.018Z,60.58
2022-11-01T00:46:05.241Z,61.08
2022-11-01T00:48:32.158Z,59.65
2022-11-01T00:50:58.815Z,59.45
2022-11-01T00:53:25.514Z,57.55
2022-11-01T00:55:52.382Z,57.80
2022-11-01T00:58:19.170Z,60.47
2022-11-01T01:00:48.204Z,60.28
2022-11-01T01:03:14.947Z,56.53
2022-11-01T01:05:41.547Z,56.13
2022-11-01T01:08:08.211Z,51.25
2022-11-01T01:10:35.299Z,53.55
2022-11-01T01:13:02.335Z,53.78
2022-11-01T01:15:29.146Z,52.28
2022-11-01T01:17:55.810Z,48.97
2022-11-01T01:20:22.723Z,47.45
2022-11-01T01:22:49.449Z,46.22
2022-11-01T01:25:16.679Z,44.92
2022-11-01T01:27:43.357Z,50.80
2022-11-01T01:30:10.434Z,49.40
2022-11-01T01:32:37.175Z,47.42
2022-11-01T01:35:04.130Z,45.70
2022-11-01T01:37:30.739Z,48.42
2022-11-01T01:39:57.457Z,51.05
2022-11-01T01:42:32.284Z,50.25
2022-11-01T01:44:58.817Z,50.95
2022-11-01T01:47:28.604Z,50.08
2022-11-01T01:50:14.679Z,48.80
2022-11-01T01:53:06.770Z,54.63
2022-11-01T01:55:51.161Z,51.72
2022-11-01T01:58:21.752Z,53.28
2022-11-01T02:00:49.399Z,55.33
2022-11-01T02:03:16.405Z,51.88
2022-11-01T02:05:52.096Z,54.08
2022-11-01T02:08:27.602Z,52.50
2022-11-01T02:10:56.948Z,57.28
2022-11-01T02:13:23.950Z,55.57
2022-11-01T02:16:13.360Z,53.85
2022-11-01T02:18:39.891Z,52.20
2022-11-01T02:21:19.136Z,55.05
2022-11-01T02:24:16.681Z,54.15
2022-11-01T02:27:10.476Z,50.47
2022-11-01T02:30:05.154Z,50.65
2022-11-01T02:32:46.911Z,51.53
2022-11-01T02:35:40.431Z,51.97
2022-11-01T02:38:21.445Z,49.55
2022-11-01T02:40:59.739Z,52.38
2022-11-01T02:43:37.894Z,50.10
2022-11-01T02:46:26.205Z,50.88
2022-11-01T02:48:54.968Z,72.25
2022-11-01T02:51:23.577Z,49.92
2022-11-01T02:53:50.344Z,46.75
2022-11-01T02:56:18.054Z,46.65
2022-11-01T02:58:47.782Z,44.47
2022-11-01T03:01:20.858Z,41.47
2022-11-01T03:03:49.302Z,40.47
2022-11-01T03:06:27.700Z,38.83
2022-11-01T03:09:01.159Z,39.92
2022-11-01T03:11:33.747Z,40.67
2022-11-01T03:14:13.724Z,42.63
2022-11-01T03:16:54.426Z,39.67
2022-11-01T03:19:34.826Z,40.60
2022-11-01T03:22:15.846Z,41.15
2022-11-01T03:24:54.904Z,44.70
2022-11-01T03:27:35.959Z,40.25
2022-11-01T03:30:06.048Z,42.25
2022-11-01T03:32:42.591Z,43.00
2022-11-01T03:35:14.435Z,40.47
2022-11-01T03:37:44.119Z,39.40
2022-11-01T03:40:12.887Z,41.25
2022-11-01T03:42:41.581Z,45.25
2022-11-01T03:45:11.828Z,42.88
2022-11-01T03:50:31.294Z,44.10
2022-11-01T03:52:58.196Z,45.50
2022-11-01T03:55:25.335Z,42.00
2022-11-01T03:57:57.457Z,38.85
2022-11-01T04:00:26.652Z,38.47
2022-11-01T04:02:55.176Z,40.42
2022-11-01T04:05:23.596Z,40.30
2022-11-01T04:07:51.545Z,39.17
2022-11-01T04:10:19.849Z,38.33
2022-11-01T04:12:48.386Z,38.53
2022-11-01T04:15:35.458Z,35.90
2022-11-01T04:18:42.084Z,40.72
2022-11-01T04:21:11.860Z,34.63
2022-11-01T04:23:39.034Z,37.15
2022-11-01T04:26:07.308Z,42.42
2022-11-01T04:28:34.306Z,35.70
2022-11-01T04:31:00.919Z,38.22
2022-11-01T04:33:27.617Z,34.75
2022-11-01T04:35:54.220Z,36.33
2022-11-01T04:38:20.867Z,35.80
2022-11-01T04:40:47.489Z,36.60
2022-11-01T04:43:14.151Z,36.42
2022-11-01T04:45:41.313Z,33.53
2022-11-01T04:48:14.018Z,35.83
2022-11-01T04:50:41.997Z,39.20
2022-11-01T04:53:10.045Z,36.72
2022-11-01T04:55:36.916Z,36.70
2022-11-01T04:58:04.482Z,36.50
2022-11-01T05:00:33.158Z,33.13
2022-11-01T05:03:02.952Z,34.17
2022-11-01T05:05:30.358Z,35.90
2022-11-01T05:08:05.040Z,36.20
2022-11-01T05:10:32.869Z,35.42
2022-11-01T05:13:00.186Z,36.40
2022-11-01T05:15:27.220Z,36.10
2022-11-01T05:17:53.877Z,33.83
2022-11-01T05:20:20.514Z,35.85
2022-11-01T05:25:38.603Z,37.83
2022-11-01T05:28:11.950Z,37.72
2022-11-01T05:30:38.852Z,35.65
2022-11-01T05:33:06.810Z,36.72
2022-11-01T05:35:34.966Z,35.63
2022-11-01T05:38:03.410Z,41.30
2022-11-01T05:40:31.026Z,37.00
2022-11-01T05:42:58.152Z,37.70
2022-11-01T05:45:25.306Z,41.67
2022-11-01T05:47:52.197Z,41.08
2022-11-01T05:50:18.784Z,38.05
2022-11-01T05:52:45.442Z,43.20
2022-11-01T05:55:12.797Z,47.47
2022-11-01T05:57:39.470Z,50.33
2022-11-01T06:00:06.724Z,45.42
2022-11-01T06:02:33.608Z,47.22
2022-11-01T06:05:02.880Z,51.55
2022-11-01T06:07:30.063Z,50.95
2022-11-01T06:09:56.743Z,58.20
2022-11-01T06:12:25.357Z,52.78
2022-11-01T06:14:52.222Z,55.90
2022-11-01T06:17:19.063Z,63.67
2022-11-01T06:19:45.841Z,68.50
2022-11-01T06:22:12.648Z,62.92
2022-11-01T06:24:39.416Z,68.85
2022-11-01T06:27:10.016Z,71.90
2022-11-01T06:29:39.198Z,68.95
2022-11-01T06:32:06.116Z,70.95
2022-11-01T06:34:32.835Z,69.25
2022-11-01T06:36:59.879Z,71.28
2022-11-01T06:39:26.956Z,64.85
2022-11-01T06:41:54.478Z,71.50
2022-11-01T06:44:22.403Z,67.22
2022-11-01T06:46:49.041Z,70.05
2022-11-01T06:49:18.890Z,66.18
2022-11-01T06:51:46.298Z,65.72
2022-11-01T06:54:13.086Z,67.28
2022-11-01T06:56:40.219Z,63.22
2022-11-01T06:59:07.291Z,63.72
2022-11-01T07:01:34.214Z,61.47
2022-11-01T07:04:01.306Z,58.20
2022-11-01T07:06:31.173Z,55.78
2022-11-01T07:09:01.595Z,57.25
2022-11-01T07:11:31.492Z,58.58
2022-11-01T07:13:59.407Z,57.40
2022-11-01T07:16:26.761Z,56.88
2022-11-01T07:18:53.502Z,54.47
2022-11-01T07:21:20.425Z,56.42
2022-11-01T07:23:47.502Z,55.70
2022-11-01T07:26:14.280Z,52.45
2022-11-01T07:28:41.015Z,53.55
2022-11-01T07:31:08.081Z,52.90
2022-11-01T07:33:35.131Z,52.95
2022-11-01T07:36:02.682Z,50.45
2022-11-01T07:38:29.333Z,51.63
2022-11-01T07:40:56.137Z,51.00
2022-11-01T07:43:23.129Z,50.88
2022-11-01T07:45:49.982Z,49.90
2022-11-01T07:48:18.542Z,48.85
2022-11-01T07:50:45.877Z,49.72
2022-11-01T07:53:15.383Z,48.58
2022-11-01T07:55:42.725Z,47.75
2022-11-01T07:58:10.293Z,45.60
2022-11-01T08:00:37.894Z,44.80
2022-11-01T08:03:07.232Z,46.88
2022-11-01T08:05:34.547Z,47.40
2022-11-01T08:08:01.792Z,45.10
2022-11-01T08:10:29.596Z,42.97
2022-11-01T08:13:19.785Z,42.85
2022-11-01T08:15:48.022Z,41.10
2022-11-01T08:18:16.279Z,41.47
2022-11-01T08:20:43.571Z,41.20
2022-11-01T08:23:11.685Z,40.38
2022-11-01T08:25:38.551Z,40.40
2022-11-01T08:28:07.864Z,39.00
2022-11-01T08:30:36.060Z,38.70
2022-11-01T08:33:04.730Z,37.20
2022-11-01T08:35:32.825Z,34.67
2022-11-01T08:37:59.772Z,35.58
2022-11-01T08:40:30.424Z,35.10
2022-11-01T08:42:57.785Z,32.55
2022-11-01T08:45:24.855Z,32.90
2022-11-01T08:47:58.186Z,32.17
2022-11-01T08:50:25.188Z,30.00
2022-11-01T08:52:51.964Z,27.52
2022-11-01T08:55:18.769Z,27.55
2022-11-01T08:57:45.472Z,27.10
2022-11-01T09:00:13.944Z,25.85
2022-11-01T09:02:40.681Z,24.90
2022-11-01T09:05:08.595Z,24.30
2022-11-01T09:07:36.002Z,23.42
2022-11-01T09:10:03.434Z,23.75
2022-11-01T09:12:30.158Z,23.98
2022-11-01T09:14:56.954Z,22.67
2022-11-01T09:17:23.652Z,22.05
2022-11-01T09:19:50.338Z,20.75
2022-11-01T09:22:17.181Z,20.73
2022-11-01T09:24:43.844Z,19.02
2022-11-01T09:27:10.511Z,18.50
2022-11-01T09:29:37.211Z,18.75
2022-11-01T09:32:03.875Z,18.90
2022-11-01T09:34:30.524Z,18.25
2022-11-01T09:36:58.029Z,18.45
2022-11-01T09:39:24.699Z,16.77
2022-11-01T09:42:01.581Z,16.77
2022-11-01T09:44:35.590Z,16.83
2022-11-01T09:47:06.276Z,16.45
2022-11-01T09:49:36.736Z,15.90
2022-11-01T09:52:05.410Z,16.63
2022-11-01T09:54:32.603Z,15.20
2022-11-01T09:57:05.330Z,16.42
2022-11-01T10:00:01.742Z,16.95
2022-11-01T10:02:48.775Z,15.50
2022-11-01T10:05:24.324Z,14.98
2022-11-01T10:08:14.076Z,16.23
2022-11-01T10:11:28.104Z,15.50
2022-11-01T10:14:26.736Z,14.88
2022-11-01T10:17:14.768Z,14.38
2022-11-01T10:19:49.915Z,15.63
2022-11-01T10:22:34.629Z,14.98
2022-11-01T10:25:15.619Z,14.35
2022-11-01T10:27:59.582Z,15.20
2022-11-01T10:30:31.417Z,13.90
2022-11-01T10:33:27.804Z,13.90
2022-11-01T10:36:04.148Z,14.52
2022-11-01T10:39:10.787Z,14.43
2022-11-01T10:41:52.370Z,14.07
2022-11-01T10:44:27.569Z,13.32
2022-11-01T10:46:55.439Z,13.57
2022-11-01T10:52:35.058Z,13.25
2022-11-01T10:55:03.308Z,12.07
2022-11-01T10:57:45.193Z,12.38
2022-11-01T11:00:18.753Z,12.07
2022-11-01T11:02:49.120Z,12.15
2022-11-01T11:07:43.900Z,11.40
2022-11-01T11:10:24.886Z,11.70
2022-11-01T11:12:57.430Z,11.60
2022-11-01T11:15:42.194Z,12.55
2022-11-01T11:18:19.516Z,10.90
2022-11-01T11:20:54.739Z,10.65
2022-11-01T11:23:23.208Z,10.18
2022-11-01T11:25:50.668Z,11.38
2022-11-01T11:28:30.534Z,11.05
2022-11-01T11:31:11.772Z,11.07
2022-11-01T11:33:39.046Z,8.88
2022-11-01T11:36:06.353Z,10.02
2022-11-01T11:38:44.811Z,10.05
2022-11-01T11:41:13.293Z,8.88
2022-11-01T11:43:42.066Z,9.65
2022-11-01T11:46:20.936Z,8.82
2022-11-01T11:49:01.238Z,8.93
2022-11-01T11:54:21.248Z,8.20
2022-11-01T11:56:51.916Z,8.50
2022-11-01T11:59:32.221Z,8.82
2022-11-01T12:02:08.044Z,8.25
2022-11-01T12:04:52.878Z,8.50
2022-11-01T12:07:32.260Z,8.32
2022-11-01T12:10:02.501Z,8.97
2022-11-01T12:14:59.143Z,8.30
2022-11-01T12:17:34.960Z,7.72
2022-11-01T12:20:17.153Z,7.65
2022-11-01T12:23:01.102Z,8.82
2022-11-01T12:25:27.902Z,8.30
2022-11-01T12:28:19.547Z,7.53
2022-11-01T12:30:48.753Z,7.50
2022-11-01T12:33:40.050Z,7.90
2022-11-01T12:36:08.777Z,7.90
2022-11-01T12:39:02.155Z,6.60
2022-11-01T12:41:46.438Z,6.68
2022-11-01T12:44:41.690Z,7.05
2022-11-01T12:47:20.033Z,6.50
2022-11-01T12:49:55.783Z,7.10
2022-11-01T12:52:46.996Z,7.13
2022-11-01T12:55:38.084Z,7.38
2022-11-01T12:58:13.025Z,7.82
2022-11-01T13:00:51.849Z,7.80
2022-11-01T13:03:44.471Z,6.70
2022-11-01T13:06:16.803Z,7.63
2022-11-01T13:09:09.632Z,6.82
2022-11-01T13:11:57.099Z,6.82
2022-11-01T13:14:39.758Z,8.02
2022-11-01T13:17:39.476Z,6.78
2022-11-01T13:20:22.245Z,7.35
2022-11-01T13:23:06.430Z,7.28
2022-11-01T13:25:50.995Z,8.05
2022-11-01T13:28:42.432Z,7.32
2022-11-01T13:31:36.821Z,7.32
2022-11-01T13:34:20.290Z,7.30
2022-11-01T13:36:54.851Z,7.57
2022-11-01T13:39:59.742Z,7.50
2022-11-01T13:42:39.753Z,7.60
2022-11-01T13:45:12.425Z,7.53
2022-11-01T13:48:07.047Z,7.28
2022-11-01T13:50:33.888Z,6.90
2022-11-01T13:53:06.843Z,7.28
2022-11-01T13:55:39.596Z,6.53
2022-11-01T13:58:06.985Z,7.63
2022-11-01T14:00:51.649Z,6.78
2022-11-01T14:03:30.917Z,6.47
2022-11-01T14:06:09.563Z,6.97
2022-11-01T14:08:43.966Z,6.10
2022-11-01T14:11:42.533Z,6.40
2022-11-01T14:14:31.183Z,6.57
2022-11-01T14:17:16.276Z,6.50
2022-11-01T14:19:43.979Z,6.63
2022-11-01T14:22:24.111Z,5.82
2022-11-01T14:25:17.057Z,6.32
2022-11-01T14:27:50.501Z,7.63
2022-11-01T14:30:42.045Z,7.07
2022-11-01T14:33:14.394Z,6.75
2022-11-01T14:35:45.445Z,6.53
2022-11-01T14:38:15.828Z,6.53
2022-11-01T14:40:56.655Z,7.57
2022-11-01T14:43:31.189Z,7.57
2022-11-01T14:46:13.891Z,6.85
2022-11-01T14:48:46.065Z,6.25
2022-11-01T14:51:38.705Z,6.88
2022-11-01T14:54:19.248Z,6.13
2022-11-01T14:56:50.981Z,7.22
2022-11-01T14:59:29.082Z,6.75
2022-11-01T15:02:03.396Z,7.65
2022-11-01T15:04:38.435Z,6.55
2022-11-01T15:07:29.418Z,6.88
2022-11-01T15:10:07.610Z,6.65
2022-11-01T15:12:46.497Z,6.05
2022-11-01T15:15:17.805Z,6.97
2022-11-01T15:20:18.130Z,7.25
2022-11-01T15:22:44.758Z,7.13
2022-11-01T15:25:29.666Z,8.00
2022-11-01T15:27:57.262Z,7.55
2022-11-01T15:30:33.667Z,7.70
2022-11-01T15:33:24.333Z,6.57
2022-11-01T15:36:08.668Z,7.05
2022-11-01T15:38:49.716Z,7.80
2022-11-01T15:41:25.987Z,9.18
2022-11-01T15:43:54.618Z,9.48
2022-11-01T15:46:25.297Z,9.02
2022-11-01T15:48:54.733Z,8.32
2022-11-01T15:51:26.500Z,8.80
2022-11-01T15:54:01.317Z,8.82
2022-11-01T15:56:42.219Z,8.43
2022-11-01T15:59:34.265Z,8.75
2022-11-01T16:02:03.999Z,9.10
2022-11-01T16:04:40.696Z,8.35
2022-11-01T16:07:08.495Z,8.32
2022-11-01T16:09:49.378Z,9.48
2022-11-01T16:12:20.122Z,9.27
2022-11-01T16:15:06.550Z,9.15
2022-11-01T16:17:35.508Z,10.48
2022-11-01T16:20:05.133Z,8.55
2022-11-01T16:22:42.000Z,8.05
2022-11-01T16:25:11.371Z,8.85
2022-11-01T16:28:03.253Z,8.57
2022-11-01T16:30:50.998Z,15.23
2022-11-01T16:33:22.783Z,24.35
2022-11-01T16:38:51.942Z,23.33
2022-11-01T16:41:24.311Z,16.70
2022-11-01T16:43:55.094Z,14.10
2022-11-01T16:46:24.234Z,12.82
2022-11-01T16:49:15.230Z,14.05
2022-11-01T16:51:42.565Z,14.52
2022-11-01T16:54:10.355Z,13.05
2022-11-01T16:56:58.558Z,13.00
2022-11-01T16:59:27.026Z,11.85
2022-11-01T17:01:55.656Z,12.82
2022-11-01T17:04:22.690Z,10.20
2022-11-01T17:06:49.871Z,11.30
2022-11-01T17:09:19.576Z,11.25
2022-11-01T17:11:51.072Z,12.60
2022-11-01T17:14:18.444Z,11.48
2022-11-01T17:16:47.628Z,11.38
2022-11-01T17:19:22.890Z,10.82
2022-11-01T17:21:51.467Z,11.23
2022-11-01T17:24:22.020Z,12.52
2022-11-01T17:26:50.305Z,10.52
2022-11-01T17:29:16.916Z,37.75
2022-11-01T17:31:43.505Z,47.60
2022-11-01T17:34:10.141Z,43.45
2022-11-01T17:36:39.652Z,59.40
2022-11-01T17:39:09.340Z,22.92
2022-11-01T17:41:37.372Z,18.00
2022-11-01T17:44:03.995Z,13.10
2022-11-01T17:46:30.700Z,12.80
2022-11-01T17:48:57.403Z,12.43
2022-11-01T17:51:24.014Z,12.18
2022-11-01T17:53:57.400Z,13.25
2022-11-01T17:56:25.325Z,13.27
2022-11-01T17:58:53.718Z,11.93
2022-11-01T18:01:21.601Z,12.57
2022-11-01T18:03:49.119Z,12.98
2022-11-01T18:06:16.845Z,13.98
2022-11-01T18:08:46.455Z,16.52
2022-11-01T18:11:29.769Z,15.07
2022-11-01T18:14:24.429Z,14.27
2022-11-01T18:16:59.629Z,13.57
2022-11-01T18:19:50.554Z,13.40
2022-11-01T18:22:26.015Z,12.02
2022-11-01T18:24:58.598Z,12.85
2022-11-01T18:27:37.585Z,13.60
2022-11-01T18:30:15.295Z,14.13
2022-11-01T18:32:51.068Z,13.85
2022-11-01T18:35:25.056Z,13.20
2022-11-01T18:38:09.120Z,13.50
2022-11-01T18:40:49.799Z,13.63
2022-11-01T18:43:18.710Z,12.40
2022-11-01T18:46:11.534Z,13.15
2022-11-01T18:48:32.963Z,12.27
2022-11-01T18:51:05.144Z,13.13
2022-11-01T18:53:34.154Z,14.65
2022-11-01T18:56:25.712Z,13.07
2022-11-01T18:58:53.804Z,12.05
2022-11-01T19:01:25.744Z,11.65
2022-11-01T19:04:09.871Z,10.93
2022-11-01T19:06:36.564Z,11.15
2022-11-01T19:09:21.739Z,11.95
2022-11-01T19:11:54.429Z,10.55
2022-11-01T19:14:22.079Z,12.23
2022-11-01T19:16:49.378Z,11.40
2022-11-01T19:19:18.790Z,11.73
2022-11-01T19:21:46.063Z,11.98
2022-11-01T19:24:33.363Z,11.10
2022-11-01T19:27:01.714Z,12.70
2022-11-01T19:29:33.892Z,11.20
2022-11-01T19:32:03.815Z,11.45
2022-11-01T19:34:35.689Z,11.63
2022-11-01T19:37:12.947Z,10.68
2022-11-01T19:39:41.596Z,9.98
2022-11-01T19:42:29.055Z,11.23
2022-11-01T19:45:09.681Z,10.32
2022-11-01T19:47:41.303Z,10.85
2022-11-01T19:50:22.087Z,11.23
2022-11-01T19:52:51.626Z,11.25
2022-11-01T19:55:21.251Z,11.70
2022-11-01T19:57:47.969Z,11.15
2022-11-01T20:00:19.490Z,10.35
2022-11-01T20:02:51.719Z,9.95
2022-11-01T20:05:35.263Z,10.18
2022-11-01T20:08:22.963Z,11.10
2022-11-01T20:10:49.617Z,9.57
2022-11-01T20:13:16.357Z,10.52
2022-11-01T20:15:43.034Z,10.65
2022-11-01T20:18:10.053Z,10.48
2022-11-01T20:20:37.191Z,8.85
2022-11-01T20:23:25.231Z,10.68
2022-11-01T20:25:50.623Z,9.43
2022-11-01T20:28:17.274Z,10.38
2022-11-01T20:30:43.900Z,9.93
2022-11-01T20:33:10.639Z,10.15
2022-11-01T20:35:37.244Z,9.75
2022-11-01T20:38:03.880Z,9.10
2022-11-01T20:40:30.511Z,10.60
2022-11-01T20:42:57.225Z,9.70
2022-11-01T20:45:23.923Z,9.85
2022-11-01T20:47:53.404Z,10.15
2022-11-01T20:50:20.238Z,9.35
2022-11-01T20:52:49.459Z,9.52
2022-11-01T20:55:16.279Z,10.30
2022-11-01T20:57:43.520Z,9.30
2022-11-01T21:00:13.460Z,9.43
2022-11-01T21:02:40.841Z,9.05
2022-11-01T21:05:26.454Z,9.20
2022-11-01T21:08:23.973Z,9.63
2022-11-01T21:11:01.961Z,9.63
2022-11-01T21:13:35.089Z,9.52
2022-11-01T21:16:03.879Z,9.98
2022-11-01T21:18:32.610Z,10.43
2022-11-01T21:21:21.868Z,9.85
2022-11-01T21:23:48.670Z,10.93
2022-11-01T21:26:19.279Z,8.82
2022-11-01T21:29:04.841Z,9.75
2022-11-01T21:31:38.904Z,9.30
2022-11-01T21:34:11.541Z,9.13
2022-11-01T21:36:42.953Z,9.80
2022-11-01T21:39:22.766Z,10.55
2022-11-01T21:41:56.724Z,8.88
2022-11-01T21:44:40.536Z,8.68
2022-11-01T21:47:11.791Z,9.35
2022-11-01T21:49:38.396Z,9.32
2022-11-01T21:52:07.449Z,10.05
2022-11-01T21:54:39.464Z,9.65
2022-11-01T21:57:09.040Z,9.68
2022-11-01T21:59:36.221Z,9.38
2022-11-01T22:02:04.474Z,9.57
2022-11-01T22:04:31.701Z,9.45
2022-11-01T22:07:00.810Z,10.65
2022-11-01T22:09:27.939Z,8.98
2022-11-01T22:11:55.147Z,8.70
2022-11-01T22:14:21.969Z,9.63
2022-11-01T22:16:48.637Z,9.20
2022-11-01T22:19:15.377Z,9.52
2022-11-01T22:21:42.243Z,8.65
2022-11-01T22:24:08.990Z,10.13
2022-11-01T22:26:35.607Z,9.52
2022-11-01T22:29:02.279Z,9.68
2022-11-01T22:31:28.882Z,8.68
2022-11-01T22:33:57.078Z,10.75
2022-11-01T22:36:26.244Z,10.30
2022-11-01T22:38:55.870Z,11.02
2022-11-01T22:41:35.887Z,10.75
2022-11-01T22:44:05.566Z,10.07
2022-11-01T22:46:56.827Z,10.07
2022-11-01T22:49:36.799Z,9.25
2022-11-01T22:52:13.670Z,8.25
2022-11-01T22:54:47.422Z,11.32
2022-11-01T22:57:35.976Z,10.48
2022-11-01T23:00:31.880Z,9.45
2022-11-01T23:03:23.620Z,9.85
2022-11-01T23:05:56.935Z,11.00
2022-11-01T23:08:27.892Z,12.82
2022-11-01T23:10:55.233Z,11.85
2022-11-01T23:13:56.027Z,11.90
2022-11-01T23:16:25.650Z,10.70
2022-11-01T23:18:54.679Z,12.32
2022-11-01T23:21:22.216Z,11.68
2022-11-01T23:23:49.488Z,11.93
2022-11-01T23:26:18.411Z,11.95
2022-11-01T23:28:48.392Z,11.27
2022-11-01T23:31:16.275Z,10.60
2022-11-01T23:33:44.688Z,9.70
2022-11-01T23:36:31.385Z,9.38
2022-11-01T23:39:06.763Z,11.30
2022-11-01T23:41:38.108Z,10.82
2022-11-01T23:44:20.036Z,10.05
2022-11-01T23:46:46.723Z,11.88
2022-11-01T23:49:25.041Z,12.27
2022-11-01T23:51:52.467Z,12.73
2022-11-01T23:54:39.923Z,13.82
2022-11-01T23:57:08.726Z,15.70
2022-11-01T23:59:35.433Z,13.48
